Ana Sayfa
METAR-TAF:

METAR-TAF

Havaalanları :

Şirak Havalimanı

Gümrü, Ermenistan

Enlem: 40-45-01N, Boylam: 043-51-33E, yükseklik: 1524 m

Güncel hava durumu gözlemi

Rapor saat 17:00 UTC de 21 dakika önce yapıldı.
Rüzgar kuzeybatıdan 3 kt
Sıcaklık 9°C
Nem 61%
Basınç 1021 hPa
Görüş mesafesi: 9000 m
4900 ft yükseklikte parçalı bulutlu

METAR: UDSG 051700Z 31003KT 9000 SCT049 09/02 Q1021 R02/CLRD70 NOSIG

Saat: 21:21 (17:21 UTC)

Tahmin

Rapor saat 11:02 UTC de 6 saat ve 19 dakika önce yapıldı.
Ayın 05'si saat 12 UTC'den ayın 06'si saat 12 UTC'ye kadar geçerli Tahmin
Rüzgar batı/güneybatıdan 8 kt
Görüş mesafesi 10 km veya daha fazla
4000 ft yükseklikte parçalı bulutlu
Geçici
ayın 05'si saat 12 UTC'den ayın 05'si saat 21 UTC'ye kadar
Rüzgar değişken yönden 18 kt
3000 ft yükseklikte az bulutlu, Kümülonimbus.

TAF: UDSG 051102Z 0512/0612 24008KT 9999 SCT040 TEMPO 0512/0521 VRB18KT FEW030CB

4.000'den fazla havaalanı için hava durumu gözlemleri ve tahminleri (METAR ve TAF raporları).

Kullanılabilir istasyonlar harita üzerinde sarı ve kırmızı noktalarla gösterilir.

İstasyonun adını görmek için fareyi noktanın üzerinde gezdirin.

Sonrasında hava gözlem ve tahminlerini görmek için tıklayın.

Haritayı değiştirmek için: yaklaştırmak için siyah artı işaretli yeşil düğmeye ve uzaklaştırmak için de eksi işaretli düğmeye hızla tıklayın; bitişik haritalar için yeşil okları kullanın.


METAR-TAF: